createdAt,value
2023-05-01T00:26:57.675Z,2.61
2023-05-01T00:29:24.751Z,2.61
2023-05-01T00:31:51.871Z,2.62
2023-05-01T00:34:19.594Z,2.63
2023-05-01T00:36:48.111Z,2.63
2023-05-01T00:39:16.529Z,2.63
2023-05-01T00:41:43.294Z,2.63
2023-05-01T00:44:10.246Z,2.61
2023-05-01T00:46:37.629Z,2.60
2023-05-01T00:49:04.412Z,2.60
2023-05-01T00:51:31.438Z,2.60
2023-05-01T00:53:59.769Z,2.58
2023-05-01T00:56:27.440Z,2.55
2023-05-01T00:58:54.714Z,2.49
2023-05-01T01:01:21.499Z,2.44
2023-05-01T01:18:39.744Z,2.12
2023-05-01T01:21:19.878Z,2.05
2023-05-01T01:24:19.119Z,1.98
2023-05-01T01:27:10.717Z,1.92
2023-05-01T01:29:41.106Z,1.91
2023-05-01T01:32:27.008Z,1.89
2023-05-01T01:35:03.017Z,1.88
2023-05-01T01:37:43.167Z,1.87
2023-05-01T01:40:29.238Z,1.88
2023-05-01T01:43:04.883Z,1.87
2023-05-01T01:45:40.577Z,1.84
2023-05-01T01:48:12.747Z,1.80
2023-05-01T01:50:41.732Z,1.78
2023-05-01T01:53:11.183Z,1.76
2023-05-01T01:55:40.958Z,1.73
2023-05-01T01:58:09.973Z,1.70
2023-05-01T02:00:38.580Z,1.64
2023-05-01T02:03:06.028Z,1.59
2023-05-01T02:05:35.406Z,1.54
2023-05-01T02:08:03.564Z,1.50
2023-05-01T02:10:32.155Z,1.48
2023-05-01T02:13:01.308Z,1.47
2023-05-01T02:15:29.837Z,1.45
2023-05-01T02:17:58.796Z,1.42
2023-05-01T02:20:26.219Z,1.40
2023-05-01T02:23:43.874Z,1.38
2023-05-01T02:26:16.702Z,1.36
2023-05-01T02:28:43.706Z,1.33
2023-05-01T02:31:10.912Z,1.29
2023-05-01T02:38:20.837Z,1.26
2023-05-01T02:40:51.790Z,1.26
2023-05-01T02:43:22.274Z,1.24
2023-05-01T02:45:51.969Z,1.23
2023-05-01T02:48:25.004Z,1.19
2023-05-01T02:50:53.334Z,1.16
2023-05-01T02:53:21.832Z,1.12
2023-05-01T02:55:51.019Z,1.07
2023-05-01T02:58:19.133Z,1.03
2023-05-01T03:00:48.896Z,0.99
2023-05-01T03:03:16.110Z,0.96
2023-05-01T03:05:43.009Z,0.93
2023-05-01T03:08:11.182Z,0.90
2023-05-01T03:10:43.778Z,0.89
2023-05-01T03:13:11.389Z,0.89
2023-05-01T03:15:39.182Z,0.89
